Latest Weather Observations for Khancoban

IDN60801

Issued at 2:32 pm EDT Sunday 17 February 2019 (issued every 10 minutes, with the page automatically refreshed every 10 minutes)

About weather observations | Map of weather stations | Latest weather observations for NSW | Other Formats
Station Details ID: 072162 Name: KHANCOBAN AWS Lat: -36.23 Lon: 148.14 Height: 339.3 m
Data from the previous 72 hours. | See also: Recent months at Khancoban
Date/Time
EDT
Temp
°C
App
Temp
°C
Dew
Point
°C
Rel
Hum
%
Delta-T
°C
Wind Press
QNH
hPa
Press
MSL
hPa
Rain since
9am
mm
Dir  Spd
km/h
Gust
km/h
Spd
kts
Gust
kts
17/02:30pm 32.2 29.2 7.8 22 13.7 NW 13 22 7 12 1011.6 1010.1 0.0
17/02:00pm 31.4 29.0 7.1 22 13.4 NW 9 20 5 11 1011.9 1010.4 0.0
17/01:30pm 31.9 29.0 8.2 23 13.3 N 13 22 7 12 1012.5 1010.9 0.0
17/01:00pm 31.0 28.1 8.1 24 12.8 N 13 24 7 13 1013.1 1011.6 0.0
17/12:30pm 30.4 28.3 9.8 28 11.8 NW 11 19 6 10 1013.7 1012.2 0.0
17/12:00pm 29.0 27.8 10.2 31 10.8 WNW 7 13 4 7 1014.4 1012.9 0.0
17/11:30am 27.5 26.4 9.8 33 10.0 NW 6 11 3 6 1014.8 1013.3 0.0
17/11:00am 25.4 24.2 9.7 37 8.8 WNW 6 7 3 4 1015.2 1013.7 0.0
17/10:30am 24.2 23.4 9.8 40 8.0 NW 4 9 2 5 1015.4 1013.9 0.0
17/10:00am 21.9 20.8 10.7 49 6.2 NNW 7 11 4 6 1015.3 1013.8 0.0
17/09:30am 20.4 20.6 10.5 53 5.5 CALM 0 0 0 0 1015.6 1014.1 0.0
17/09:00am 18.7 18.5 10.3 58 4.6 NNW 2 6 1 3 1015.6 1014.1 0.0
17/08:30am 16.4 16.5 11.6 73 2.6 E 2 6 1 3 1015.6 1014.1 0.0
17/08:00am 13.0 13.2 10.7 86 1.2 CALM 0 2 0 1 1015.6 1014.1 0.0
17/07:30am 12.2 12.3 10.3 88 1.0 CALM 0 0 0 0 1015.6 1014.1 0.0
17/07:00am 12.2 11.8 9.8 85 1.2 NE 2 6 1 3 1015.2 1013.7 0.0
17/06:30am 12.5 11.7 9.5 82 1.6 NE 4 7 2 4 1014.7 1013.2 0.0
17/06:00am 12.6 12.6 9.8 83 1.5 CALM 0 0 0 0 1014.4 1012.9 0.0
17/05:30am 12.3 12.3 9.7 84 1.3 CALM 0 0 0 0 1014.3 1012.8 0.0
17/05:00am 13.1 12.0 9.9 81 1.7 NE 6 7 3 4 1014.3 1012.8 0.0
17/04:30am 13.6 13.6 9.8 78 2.0 CALM 0 0 0 0 1014.3 1012.8 0.0
17/04:00am 13.9 12.8 10.1 78 2.0 S 6 9 3 5 1014.5 1013.0 0.0
17/03:30am 12.9 12.4 9.4 79 1.8 NE 2 7 1 4 1014.6 1013.1 0.0
17/03:00am 13.7 13.7 9.9 78 2.0 CALM 0 0 0 0 1014.6 1013.1 0.0
17/02:30am 13.6 12.5 9.8 78 2.0 ENE 6 7 3 4 1014.6 1013.1 0.0
17/02:00am 14.3 14.1 10.5 78 2.0 NE 2 7 1 4 1014.7 1013.2 0.0
17/01:30am 14.9 14.8 10.7 76 2.3 SE 2 6 1 3 1014.9 1013.4 0.0
17/01:00am 15.7 15.7 11.1 74 2.5 ENE 2 6 1 3 1015.3 1013.8 0.0
17/12:30am 14.9 14.8 10.7 76 2.3 ESE 2 6 1 3 1015.5 1014.0 0.0
17/12:00am 16.1 16.0 10.8 71 2.9 SE 2 7 1 4 1015.4 1013.9 0.0
 
Date/Time
EDT
Temp
°C
App
Temp
°C
Dew
Point
°C
Rel
Hum
%
Delta-T
°C
Wind Press
QNH
hPa
Press
MSL
hPa
Rain since
9am
mm
Dir  Spd
km/h
Gust
km/h
Spd
kts
Gust
kts
16/11:30pm 16.3 16.6 11.0 71 2.9 CALM 0 0 0 0 1015.6 1014.1 0.0
16/11:00pm 17.0 17.3 10.8 67 3.4 CALM 0 0 0 0 1015.7 1014.2 0.0
16/10:30pm 17.4 16.6 11.0 66 3.5 SSE 6 9 3 5 1015.8 1014.3 0.0
16/10:00pm 18.3 17.3 10.4 60 4.3 SSE 6 9 3 5 1015.7 1014.2 0.0
16/09:30pm 21.2 19.8 11.0 52 5.7 NW 9 13 5 7 1015.6 1014.1 0.0
16/09:00pm 20.8 21.2 11.2 54 5.4 CALM 0 4 0 2 1015.3 1013.8 0.0
16/08:30pm 22.0 21.3 11.4 51 6.0 S 6 9 3 5 1014.8 1013.3 0.0
16/08:00pm 24.2 24.3 11.5 45 7.3 ESE 2 6 1 3 1014.7 1013.2 0.0
16/07:30pm 28.2 26.9 9.9 32 10.4 NNW 7 9 4 5 1014.5 1013.0 0.0
16/07:00pm 30.0 29.7 10.0 29 11.5 NW 2 6 1 3 1014.5 1013.0 0.0
16/06:30pm 30.8 29.3 8.5 25 12.5 WNW 6 9 3 5 1014.6 1013.1 0.0
16/06:00pm 30.4 28.4 8.7 26 12.2 NNW 9 13 5 7 1014.9 1013.4 0.0
16/05:30pm 30.5 28.8 9.9 28 11.8 NNW 9 19 5 10 1015.0 1013.5 0.0
16/05:00pm 30.0 28.6 9.5 28 11.7 ESE 7 11 4 6 1015.3 1013.8 0.0
16/04:30pm 30.1 28.8 10.1 29 11.5 ENE 7 13 4 7 1015.5 1014.0 0.0
16/04:00pm 29.5 28.6 11.5 33 10.5 N 7 15 4 8 1015.9 1014.4 0.0
16/03:30pm 29.6 28.3 11.2 32 10.7 NNW 9 15 5 8 1016.4 1014.9 0.0
16/03:00pm 29.1 28.0 10.7 32 10.6 N 7 15 4 8 1017.0 1015.5 0.0
16/02:30pm 28.9 28.2 11.9 35 10.0 E 7 13 4 7 1017.4 1015.9 0.0
16/02:00pm 28.3 27.7 12.2 37 9.5 NNW 7 17 4 9 1017.9 1016.5 0.0
16/01:30pm 27.9 26.7 12.7 39 9.0 NW 11 17 6 9 1018.2 1016.8 0.0
16/01:00pm 27.6 26.3 11.2 36 9.5 NNW 9 13 5 7 1018.6 1017.1 0.0
16/12:30pm 27.9 27.1 11.0 35 9.8 SE 6 11 3 6 1018.9 1017.4 0.0
16/12:00pm 27.2 27.7 13.9 44 8.0 WNW 4 9 2 5 1019.3 1017.8 0.0
16/11:30am 26.1 26.0 13.2 44 7.7 NE 6 9 3 5 1019.6 1018.1 0.0
16/11:00am 24.8 24.7 14.0 51 6.4 NW 7 11 4 6 1020.1 1018.6 0.0
16/10:30am 23.8 23.9 14.5 56 5.6 WNW 7 9 4 5 1020.3 1018.9 0.0
16/10:00am 22.4 23.0 14.3 60 4.8 WNW 4 7 2 4 1020.4 1019.0 0.0
16/09:30am 21.6 23.2 15.0 66 4.0 CALM 0 6 0 3 1020.4 1019.0 0.0
16/09:00am 20.2 21.2 14.3 69 3.5 W 2 6 1 3 1020.7 1019.3 0.0
16/08:30am 18.2 19.4 13.9 76 2.5 CALM 0 0 0 0 1020.9 1019.5 0.0
16/08:00am 16.3 17.7 14.5 89 1.0 CALM 0 0 0 0 1020.6 1019.2 0.0
16/07:30am 14.2 15.1 13.9 98 0.2 NE 2 6 1 3 1020.5 1019.1 0.0
16/07:00am 14.0 14.4 13.7 98 0.2 SSE 4 7 2 4 1020.3 1018.9 0.0
16/06:30am 14.0 15.1 13.4 96 0.3 CALM 0 0 0 0 1020.1 1018.6 0.0
16/06:00am 14.6 15.6 13.1 91 0.8 CALM 0 0 0 0 1019.7 1018.2 0.0
16/05:30am 14.2 14.4 13.2 94 0.6 SE 4 6 2 3 1019.7 1018.2 0.0
16/05:00am 14.7 15.7 13.2 91 0.8 CALM 0 0 0 0 1019.7 1018.2 0.0
16/04:30am 15.4 16.6 13.8 90 0.9 CALM 0 0 0 0 1019.7 1018.2 0.0
16/04:00am 15.0 15.9 13.0 88 1.1 CALM 0 0 0 0 1019.7 1018.2 0.0
16/03:30am 15.4 16.4 13.1 86 1.3 CALM 0 0 0 0 1019.8 1018.3 0.0
16/03:00am 16.0 17.0 13.1 83 1.6 CALM 0 0 0 0 1020.0 1018.5 0.0
16/02:30am 15.7 16.6 12.8 83 1.6 CALM 0 0 0 0 1020.0 1018.5 0.0
16/02:00am 16.3 16.5 13.0 81 1.9 E 4 6 2 3 1020.1 1018.6 0.0
16/01:30am 17.4 18.4 13.1 76 2.4 CALM 0 6 0 3 1020.2 1018.7 0.0
16/01:00am 18.1 18.5 12.5 70 3.2 N 2 6 1 3 1020.3 1018.9 0.0
16/12:30am 18.8 19.2 12.5 67 3.6 E 2 7 1 4 1020.4 1019.0 0.0
16/12:00am 20.6 20.0 13.6 64 4.1 SE 9 13 5 7 1020.1 1018.6 0.0
 
Date/Time
EDT
Temp
°C
App
Temp
°C
Dew
Point
°C
Rel
Hum
%
Delta-T
°C
Wind Press
QNH
hPa
Press
MSL
hPa
Rain since
9am
mm
Dir  Spd
km/h
Gust
km/h
Spd
kts
Gust
kts
15/11:30pm 19.5 18.7 12.8 65 3.8 SSE 9 13 5 7 1020.0 1018.5 0.0
15/11:00pm 19.3 19.0 12.6 65 3.8 NE 6 9 3 5 1019.9 1018.4 0.0
15/10:30pm 20.6 19.7 12.6 60 4.6 ENE 9 13 5 7 1020.1 1018.6 0.0
15/10:00pm 20.4 19.9 12.1 59 4.7 NE 6 11 3 6 1020.0 1018.5 0.0
15/09:30pm 21.2 21.7 11.5 54 5.5 CALM 0 6 0 3 1019.7 1018.2 0.0
15/09:00pm 21.7 21.8 11.4 52 5.8 SE 2 6 1 3 1019.4 1017.9 0.0
15/08:30pm 23.1 23.6 11.5 48 6.6 CALM 0 6 0 3 1018.9 1017.4 0.0
15/08:00pm 24.0 24.2 12.0 47 6.9 ENE 2 6 1 3 1018.6 1017.1 0.0
15/07:30pm 28.4 28.9 11.5 35 9.9 CALM 0 0 0 0 1018.2 1016.8 0.0
15/07:00pm 30.3 29.0 9.2 27 11.9 NW 6 7 3 4 1018.4 1016.9 0.0
15/06:30pm 31.0 29.4 8.1 24 12.8 WNW 6 9 3 5 1018.4 1016.9 0.0
15/06:00pm 31.2 29.1 8.2 24 12.9 WNW 9 13 5 7 1018.6 1017.1 0.0
15/05:30pm 31.1 28.7 6.9 22 13.3 WNW 9 15 5 8 1018.9 1017.4 0.0
15/05:00pm 31.1 28.5 6.2 21 13.5 WNW 9 11 5 6 1019.1 1017.6 0.0
15/04:30pm 30.4 27.3 5.6 21 13.3 NNW 11 15 6 8 1019.3 1017.8 0.0
15/04:00pm 30.6 28.4 5.1 20 13.5 S 6 11 3 6 1019.6 1018.1 0.0
15/03:30pm 30.2 28.0 6.1 22 13.0 W 7 15 4 8 1020.0 1018.5 0.0
15/03:00pm 30.1 27.5 6.1 22 12.9 WSW 9 13 5 7 1020.6 1019.2 0.0
15/02:30pm 29.1 26.7 5.2 22 12.6 NW 7 15 4 8 1021.1 1019.7 0.0
15/02:00pm 29.0 26.8 6.4 24 12.1 N 7 11 4 6 1021.8 1020.3 0.0
15/01:30pm 28.4 26.1 7.6 27 11.4 N 9 15 5 8 1022.3 1020.8 0.0
15/01:00pm 26.5 23.8 7.5 30 10.2 NW 11 15 6 8 1022.6 1021.1 0.0
15/12:30pm 26.7 25.1 8.2 31 10.1 NNE 6 11 3 6 1023.1 1021.7 0.0
15/12:00pm 25.9 24.6 9.3 35 9.2 SE 6 9 3 5 1023.5 1022.1 0.0
15/11:30am 23.9 22.9 8.7 38 8.3 N 4 9 2 5 1023.9 1022.5 0.0
15/11:00am 22.2 20.8 9.7 45 6.8 NW 7 11 4 6 1024.2 1022.8 0.0
15/10:30am 21.5 21.3 10.6 50 6.1 S 2 9 1 5 1024.4 1023.0 0.0
15/10:00am 19.5 18.6 9.4 52 5.4 N 4 11 2 6 1024.6 1023.1 0.0
15/09:30am 18.3 18.1 10.4 60 4.3 WSW 2 6 1 3 1024.3 1022.9 0.0
15/09:00am 16.4 16.0 9.8 65 3.5 WNW 2 6 1 3 1024.1 1022.7 0.0
15/08:30am 15.4 15.0 11.0 75 2.4 NW 4 7 2 4 1023.8 1022.4 0.0
15/08:00am 13.2 12.3 10.7 85 1.3 NE 6 9 3 5 1023.4 1022.0 0.0
15/07:30am 11.8 11.4 9.9 88 1.0 SE 2 7 1 4 1023.2 1021.8 0.0
15/07:00am 11.0 10.7 8.8 86 1.1 CALM 0 0 0 0 1022.9 1021.5 0.0
15/06:30am 10.8 10.5 8.7 87 1.1 CALM 0 0 0 0 1022.7 1021.2 0.0
15/06:00am 11.3 9.9 8.9 85 1.2 SSE 6 7 3 4 1022.4 1020.9 0.0
15/05:30am 12.0 11.8 9.2 83 1.4 CALM 0 0 0 0 1022.0 1020.5 0.0
15/05:00am 11.2 10.4 8.1 81 1.5 NNW 2 7 1 4 1021.8 1020.3 0.0
15/04:30am 12.6 12.3 8.7 77 2.0 CALM 0 0 0 0 1021.8 1020.3 0.0
15/04:00am 13.1 12.6 9.2 77 2.0 SSE 2 6 1 3 1021.3 1019.9 0.0
15/03:30am 12.1 11.5 8.9 81 1.6 ESE 2 9 1 5 1021.2 1019.8 0.0
15/03:00am 12.3 12.0 8.8 79 1.8 CALM 0 0 0 0 1021.2 1019.8 0.0
15/02:30am 12.0 11.3 8.5 79 1.8 SSW 2 7 1 4 1021.3 1019.9 0.0
15/02:00am 12.7 12.0 8.4 75 2.2 E 2 7 1 4 1021.2 1019.8 0.0
15/01:30am 13.5 12.0 8.6 72 2.5 NE 6 7 3 4 1021.2 1019.8 0.0
15/01:00am 12.0 11.6 8.3 78 1.9 CALM 0 0 0 0 1021.3 1019.9 0.0
15/12:30am 12.8 12.0 8.1 73 2.4 SSE 2 6 1 3 1021.3 1019.9 0.0
15/12:00am 13.1 12.3 8.0 71 2.6 SSW 2 6 1 3 1021.1 1019.7 0.0
 
Date/Time
EDT
Temp
°C
App
Temp
°C
Dew
Point
°C
Rel
Hum
%
Delta-T
°C
Wind Press
QNH
hPa
Press
MSL
hPa
Rain since
9am
mm
Dir  Spd
km/h
Gust
km/h
Spd
kts
Gust
kts
14/11:30pm 13.2 12.0 8.1 71 2.6 SSE 4 9 2 5 1021.0 1019.6 0.0
14/11:00pm 15.5 13.5 8.7 64 3.5 NNE 9 11 5 6 1020.7 1019.3 0.0
14/10:30pm 13.9 13.4 7.9 67 3.0 CALM 0 0 0 0 1020.4 1019.0 0.0
14/10:00pm 15.4 14.7 8.4 63 3.6 NW 2 7 1 4 1020.0 1018.5 0.0
14/09:30pm 15.8 15.3 7.8 59 4.1 CALM 0 6 0 3 1019.8 1018.3 0.0
14/09:00pm 17.8 16.3 8.4 54 4.9 NNE 6 9 3 5 1019.4 1017.9 0.0
14/08:30pm 17.7 15.8 7.7 52 5.2 SSW 7 9 4 5 1019.0 1017.5 0.0
14/08:00pm 20.3 19.8 8.0 45 6.5 CALM 0 0 0 0 1018.6 1017.1 0.0
14/07:30pm 24.8 23.6 9.5 38 8.5 SSW 6 7 3 4 1018.0 1016.6 0.0
14/07:00pm 26.5 24.6 4.9 25 11.1 WNW 4 7 2 4 1017.8 1016.4 0.0
14/06:30pm 26.6 23.9 3.8 23 11.6 SW 7 9 4 5 1017.6 1016.1 0.0
14/06:00pm 26.5 24.3 3.1 22 11.7 SW 4 11 2 6 1017.5 1016.0 0.0
14/05:30pm 26.6 23.3 2.5 21 11.9 WNW 9 13 5 7 1017.7 1016.3 0.0
14/05:00pm 26.0 22.6 2.0 21 11.7 NNW 9 13 5 7 1017.8 1016.4 0.0
14/04:30pm 25.9 23.2 2.6 22 11.5 ENE 6 11 3 6 1017.9 1016.5 0.0
14/04:00pm 25.1 21.3 1.9 22 11.2 N 11 15 6 8 1018.1 1016.7 0.0
14/03:30pm 24.9 21.6 2.4 23 11.0 SW 9 15 5 8 1018.4 1016.9 0.0
14/03:00pm 24.7 21.1 2.8 24 10.7 NW 11 15 6 8 1018.8 1017.3 0.0

Other Formats:

Comma delimited format used in spreadsheet applications
http://www.bom.gov.au/fwo/IDN60801/IDN60801.94919.axf

JavaScript Object Notation format (JSON) in row-major order
http://www.bom.gov.au/fwo/IDN60801/IDN60801.94919.json